Mossbank, Canada
Current Conditions -  °F | °C
As of 4:00 AM on Sunday 23 Nov 2014 (Local Time) from CYQR Reporting Station
Snow Showers Snow Showers  
Wind Chill: -18°   Ceiling: 1200
Heat Index: -8°   Visibility: 15mi
Dew Point: -9°   Wind: 22mph
Humidity: 93%   Direction: 350°N
Pressure: 29.42"   Gusts: 33mph
Location:  49.93°N, 105.97°W
Report Text: CYQR 231000Z 35019G29KT 15SM -SHSN OVC012 M08/M09 A2942 RMK SC8 PRESRR SLP991
Loading
Personal Weather Stations






























Interactive Weather Map New forecast layout! Learn more

10-Day Weather Forecast

Advertisements
Track Severe Weather on mobile